Portada
METAR-TAF:

METAR-TAF

Aeroports :

Hyderabad, Índia

latitud: 17-14-00N, longitud: 078-26-00E, altitud: 617 m

Observació

L'informe es va fer fa 12 minuts, a les 16:00 UTC
Vent 4 kt del Est/Sud-Est
Temperatura 23°C
Humitat 50%
Pressió 1018 hPa
Visibilitat: 6000 m
Escasses núvols a una alçada de 1500 ft

METAR: VOHS 181600Z 11004KT 6000 FEW015 23/12 Q1018 NOSIG

Hora: 21:42 (16:12 UTC)

Pronòstic

L'informe es va fer fa 2 hores i 12 minuts, a les 14:00 UTC
Pronòstic vàlid del 18 a les 15 UTC al 18 a les 24 UTC
Vent 5 kt del Est
Visibilitat: 5000 m
Escasses núvols a una alçada de 1500 ft
calitja
Temporalment
l' 18 a les 18 UTC al 18 a les 24 UTC
Vent 4 kt amb direcció variable
Visibilitat: 5000 m
Escasses núvols a una alçada de 1000 ft
boirina

TAF: VOHS 181400Z 1815/1824 12006KT 5000 HZ FEW015 1815/1818 10005KT NSC TEMPO 1818/1824 VRB04KT 5000 BR FEW010

Observacions i pronòstics meteorològics de més de 4000 aeroports (METAR i TAF).

Les estacions disponibles són els punts grocs i vermells al mapa.

Posi el ratolí al punt desitjat per veure el nom de l'estació.

Feu clic per veure les observacions i els pronòstics meteorològics.

Per canviar el mapa: feu clic els botons verds amb una creu de color negre per apropar; al botó verd amb un guió per allunyar la imatge; o en les fletxes verdes per a mapes adjacents.


METAR-TAF: